Time;durP1;ratioP1;P1;durP2;ratioP2;P2;SDS_P1;SDS_P2;PMS_P1;PMS_P2;Temp;Humidity;BMP_temperature;BMP_pressure;BME280_temperature;BME280_humidity;BME280_pressure;Samples;Min_cycle;Max_cycle;Signal;HPM_P1;HPM_P2
2023/10/19 00:01:15;;;;;;;28.50;15.90;;;8.60;99.90;;;;;;4880295;29;20398;-87
2023/10/19 00:03:42;;;;;;;27.85;16.15;;;7.70;99.90;;;;;;4879254;29;20045;-87
2023/10/19 00:06:08;;;;;;;29.98;16.15;;;7.10;99.90;;;;;;4864454;29;20045;-87
2023/10/19 00:08:41;;;;;;;30.42;16.13;;;9.10;99.90;;;;;;4879917;29;20049;-87
2023/10/19 00:11:08;;;;;;;32.78;17.80;;;7.40;99.90;;;;;;4877379;29;20064;-87
2023/10/19 00:13:39;;;;;;;31.08;16.50;;;8.00;99.90;;;;;;4883425;29;20049;-87
2023/10/19 00:16:17;;;;;;;32.10;16.52;;;7.50;99.90;;;;;;4883261;29;20508;-87
2023/10/19 00:18:48;;;;;;;31.05;16.90;;;7.60;99.90;;;;;;4883272;29;20051;-87
2023/10/19 00:21:20;;;;;;;31.58;17.00;;;8.40;99.90;;;;;;4882654;29;20493;-87
2023/10/19 00:27:05;;;;;;;30.77;16.42;;;7.40;99.90;;;;;;4887356;23;20540;-87
2023/10/19 00:29:32;;;;;;;28.80;17.27;;;8.50;99.90;;;;;;4863902;29;20494;-87
2023/10/19 00:31:59;;;;;;;33.45;17.92;;;8.20;99.90;;;;;;4863500;29;20493;-87
2023/10/19 00:34:28;;;;;;;30.73;17.30;;;8.60;99.90;;;;;;4863797;29;20056;-88
2023/10/19 00:37:01;;;;;;;33.30;17.67;;;7.70;99.90;;;;;;4879800;29;20045;-87
2023/10/19 00:39:27;;;;;;;32.17;17.33;;;8.80;99.90;;;;;;4879809;29;20120;-87
2023/10/19 00:41:57;;;;;;;31.83;17.90;;;8.20;99.90;;;;;;4879404;29;20453;-87
2023/10/19 00:44:35;;;;;;;33.08;19.05;;;7.70;99.90;;;;;;4878665;29;20053;-87
2023/10/19 00:47:08;;;;;;;32.38;17.08;;;7.80;99.90;;;;;;4864890;29;20044;-87
2023/10/19 00:49:38;;;;;;;34.67;18.77;;;6.70;99.90;;;;;;4864077;29;20484;-87
2023/10/19 00:52:12;;;;;;;31.13;17.70;;;8.20;99.90;;;;;;4862892;29;20375;-87
2023/10/19 00:57:19;;;;;;;36.88;19.27;;;7.70;99.90;;;;;;4910298;29;20461;-87
2023/10/19 01:00:01;;;;;;;32.10;17.52;;;8.30;99.90;;;;;;4878576;29;20056;-88
2023/10/19 01:05:00;;;;;;;34.83;19.63;;;7.70;99.90;;;;;;4910479;29;20099;-89
2023/10/19 01:07:29;;;;;;;36.47;19.30;;;8.10;99.90;;;;;;4862954;29;20439;-88
2023/10/19 01:10:23;;;;;;;34.60;19.00;;;8.90;99.90;;;;;;4863878;29;20053;-88
2023/10/19 01:12:50;;;;;;;37.05;19.42;;;7.70;99.90;;;;;;4863169;29;20052;-88
2023/10/19 01:15:23;;;;;;;33.33;19.25;;;7.70;99.90;;;;;;4863758;29;20064;-88
2023/10/19 01:17:56;;;;;;;38.67;20.38;;;7.60;99.90;;;;;;4863733;29;20501;-88
2023/10/19 01:21:11;;;;;;;35.85;19.80;;;7.80;99.90;;;;;;4863714;29;20057;-88
2023/10/19 01:25:41;;;;;;;39.47;19.80;;;8.60;99.90;;;;;;4863124;29;20060;-87
2023/10/19 01:28:10;;;;;;;44.95;21.17;;;8.20;99.90;;;;;;4878112;29;20064;-88
2023/10/19 01:30:37;;;;;;;38.03;19.88;;;9.00;99.90;;;;;;4879440;29;20053;-87
2023/10/19 01:33:04;;;;;;;40.05;20.45;;;8.50;99.90;;;;;;4879870;29;20049;-88
2023/10/19 01:38:17;;;;;;;39.13;20.08;;;8.80;99.90;;;;;;4909711;29;20053;-88
2023/10/19 01:40:46;;;;;;;37.20;20.17;;;8.70;99.90;;;;;;4877972;29;20409;-88
2023/10/19 01:43:21;;;;;;;41.22;20.02;;;7.60;99.90;;;;;;4878494;29;20056;-88
2023/10/19 01:45:54;;;;;;;38.47;19.65;;;7.40;99.90;;;;;;4862972;29;20485;-89
2023/10/19 01:48:22;;;;;;;40.88;20.38;;;8.40;99.90;;;;;;4862025;29;20104;-88
2023/10/19 01:50:50;;;;;;;40.17;21.90;;;7.80;99.90;;;;;;4878477;29;20104;-89
2023/10/19 01:53:17;;;;;;;39.90;20.30;;;8.30;99.90;;;;;;4909184;29;20053;-89
2023/10/19 01:55:47;;;;;;;39.63;20.65;;;7.40;99.90;;;;;;4877614;29;20053;-88
2023/10/19 01:58:14;;;;;;;40.53;21.23;;;8.10;99.90;;;;;;4878119;29;20124;-89
2023/10/19 02:00:42;;;;;;;42.47;20.60;;;8.50;99.90;;;;;;4879418;29;20045;-88
2023/10/19 02:03:08;;;;;;;37.40;19.75;;;7.70;99.90;;;;;;4877545;29;20045;-89
2023/10/19 02:05:42;;;;;;;40.20;19.90;;;8.10;99.90;;;;;;4877811;29;20052;-90
2023/10/19 02:08:08;;;;;;;39.42;20.88;;;8.10;99.90;;;;;;4878284;29;20056;-89
2023/10/19 02:10:35;;;;;;;41.47;20.42;;;8.80;99.90;;;;;;4877426;29;20044;-90
2023/10/19 02:13:06;;;;;;;38.35;20.33;;;8.20;99.90;;;;;;4878134;29;20104;-90
2023/10/19 02:15:35;;;;;;;41.22;20.50;;;8.70;99.90;;;;;;4862438;29;20151;-89
2023/10/19 02:18:02;;;;;;;43.47;20.67;;;7.70;99.90;;;;;;4877363;29;20053;-88
2023/10/19 02:20:28;;;;;;;43.00;19.95;;;7.70;99.90;;;;;;4862263;29;20056;-88
2023/10/19 02:22:57;;;;;;;40.83;20.58;;;8.70;99.90;;;;;;4876976;29;20501;-88
2023/10/19 02:25:25;;;;;;;37.42;19.38;;;8.80;99.90;;;;;;4877153;29;20569;-88
2023/10/19 02:27:52;;;;;;;39.70;19.58;;;8.30;99.90;;;;;;4878698;29;20044;-88
2023/10/19 02:30:18;;;;;;;40.20;19.55;;;8.10;99.90;;;;;;4878253;29;20053;-89
2023/10/19 02:32:43;;;;;;;38.35;19.20;;;8.10;99.90;;;;;;4877334;29;20052;-88
2023/10/19 02:35:09;;;;;;;36.75;18.90;;;8.70;99.90;;;;;;4878023;29;20053;-88
2023/10/19 02:37:35;;;;;;;39.50;20.13;;;7.60;99.90;;;;;;4892475;29;20056;-88
2023/10/19 02:40:00;;;;;;;39.67;20.10;;;8.60;99.90;;;;;;4877723;29;20075;-89
2023/10/19 02:42:29;;;;;;;39.17;19.97;;;8.70;99.90;;;;;;4877611;29;20041;-89
2023/10/19 02:44:55;;;;;;;41.80;19.40;;;8.90;99.90;;;;;;4877329;29;20057;-89
2023/10/19 02:47:20;;;;;;;38.17;20.02;;;7.80;99.90;;;;;;4884164;29;20045;-89
2023/10/19 02:49:51;;;;;;;35.55;19.70;;;8.50;99.90;;;;;;4878126;29;20109;-89
2023/10/19 02:52:16;;;;;;;39.58;19.90;;;8.90;99.90;;;;;;4879521;29;20049;-88
2023/10/19 02:54:42;;;;;;;37.95;19.35;;;8.10;99.90;;;;;;4877700;29;20109;-88
2023/10/19 02:57:09;;;;;;;43.95;19.25;;;7.70;99.90;;;;;;4877660;29;20052;-89
2023/10/19 02:59:35;;;;;;;41.25;19.70;;;8.30;99.90;;;;;;4880409;29;20089;-89
2023/10/19 03:04:36;;;;;;;39.38;18.73;;;8.00;99.90;;;;;;4878132;29;20072;-89
2023/10/19 03:07:03;;;;;;;40.28;18.95;;;9.20;99.90;;;;;;4877148;29;20045;-89
2023/10/19 03:09:30;;;;;;;39.72;18.15;;;8.90;99.90;;;;;;4893032;29;20049;-89
2023/10/19 03:11:59;;;;;;;34.95;17.58;;;9.30;99.90;;;;;;4877804;29;20089;-88
2023/10/19 03:14:26;;;;;;;37.45;18.48;;;7.60;99.90;;;;;;4876857;29;20068;-88
2023/10/19 03:16:55;;;;;;;34.40;17.65;;;9.00;99.90;;;;;;4862073;29;20045;-88
2023/10/19 03:19:21;;;;;;;41.60;18.60;;;7.90;99.90;;;;;;4860800;29;20960;-88
2023/10/19 03:21:49;;;;;;;36.22;18.13;;;8.20;99.90;;;;;;4878821;29;20132;-88
2023/10/19 03:27:12;;;;;;;40.05;18.75;;;8.20;99.90;;;;;;4876833;29;20135;-89
2023/10/19 03:29:38;;;;;;;41.85;19.90;;;8.40;99.90;;;;;;4877741;29;20511;-88
2023/10/19 03:32:08;;;;;;;43.30;20.20;;;8.50;99.90;;;;;;4878719;29;20044;-88
2023/10/19 03:34:35;;;;;;;42.10;19.52;;;8.90;99.90;;;;;;4880238;29;20052;-89
2023/10/19 03:37:05;;;;;;;43.50;20.15;;;8.00;99.90;;;;;;4877388;29;20076;-88
2023/10/19 03:39:37;;;;;;;42.60;18.70;;;8.00;99.90;;;;;;4860861;29;20053;-87
2023/10/19 03:42:06;;;;;;;49.08;20.00;;;7.90;99.90;;;;;;4843140;29;20487;-89
2023/10/19 03:44:44;;;;;;;43.85;19.67;;;8.00;99.90;;;;;;4845537;29;20049;-88
2023/10/19 03:47:14;;;;;;;44.95;19.80;;;7.90;99.90;;;;;;4846169;29;20052;-88
2023/10/19 03:49:40;;;;;;;44.92;20.70;;;8.80;99.90;;;;;;4846800;29;20042;-89
2023/10/19 03:54:39;;;;;;;49.45;20.15;;;8.00;99.90;;;;;;4862726;29;20124;-89
2023/10/19 03:57:24;;;;;;;43.80;20.45;;;8.10;99.90;;;;;;4862159;29;20045;-89
2023/10/19 03:59:52;;;;;;;49.97;21.33;;;9.10;99.90;;;;;;4862779;29;20383;-88
2023/10/19 04:02:20;;;;;;;45.88;20.25;;;8.80;99.90;;;;;;4891475;29;20049;-89
2023/10/19 04:04:47;;;;;;;50.03;20.58;;;8.90;99.90;;;;;;4864570;29;20064;-89
2023/10/19 04:07:25;;;;;;;47.85;20.33;;;8.00;99.90;;;;;;4865053;29;20057;-89
2023/10/19 04:12:31;;;;;;;43.20;18.88;;;9.20;99.90;;;;;;4882468;29;20091;-89
2023/10/19 04:14:57;;;;;;;42.83;18.35;;;8.40;99.90;;;;;;4866552;29;20123;-89
2023/10/19 04:17:24;;;;;;;43.80;19.10;;;9.10;99.90;;;;;;4867369;29;20053;-88
2023/10/19 04:19:54;;;;;;;37.30;17.80;;;8.60;99.90;;;;;;4871462;29;20057;-89
2023/10/19 04:22:23;;;;;;;34.78;16.58;;;9.20;99.90;;;;;;4879743;29;20113;-89
2023/10/19 04:24:53;;;;;;;42.08;18.13;;;9.40;99.90;;;;;;4864808;29;20060;-90
2023/10/19 04:27:23;;;;;;;41.53;17.45;;;8.10;99.90;;;;;;4895465;29;20478;-89
2023/10/19 04:29:49;;;;;;;38.37;16.40;;;7.70;99.90;;;;;;4867300;29;20049;-89
2023/10/19 04:32:23;;;;;;;36.55;16.70;;;9.20;99.90;;;;;;4864511;29;20144;-89
2023/10/19 04:34:48;;;;;;;33.38;15.85;;;8.80;99.90;;;;;;4865023;29;20092;-90
2023/10/19 04:37:18;;;;;;;32.97;16.25;;;8.60;99.90;;;;;;4863800;29;20127;-90
2023/10/19 04:39:56;;;;;;;36.95;15.65;;;9.20;99.90;;;;;;4864983;29;20049;-90
2023/10/19 04:42:22;;;;;;;32.65;15.13;;;7.90;99.90;;;;;;4864788;29;20144;-88
2023/10/19 04:44:48;;;;;;;33.72;14.55;;;7.70;99.90;;;;;;4864405;29;20072;-90
2023/10/19 04:47:20;;;;;;;32.15;15.25;;;8.70;99.90;;;;;;4865132;29;20449;-90
2023/10/19 04:49:45;;;;;;;33.50;15.70;;;8.20;99.90;;;;;;4864938;29;20189;-89
2023/10/19 04:52:11;;;;;;;37.28;15.35;;;8.20;99.90;;;;;;4863382;29;20135;-89
2023/10/19 04:54:37;;;;;;;33.15;14.52;;;8.50;99.90;;;;;;4863727;29;20128;-89
2023/10/19 04:57:03;;;;;;;34.42;14.23;;;8.60;99.90;;;;;;4864809;29;20134;-90
2023/10/19 04:59:32;;;;;;;30.73;13.70;;;8.30;99.90;;;;;;4864288;29;20553;-90
2023/10/19 05:02:01;;;;;;;34.92;14.10;;;8.40;99.90;;;;;;4864386;29;20394;-90
2023/10/19 05:04:27;;;;;;;32.25;14.50;;;9.40;99.90;;;;;;4880405;29;20056;-90
2023/10/19 05:06:53;;;;;;;27.58;13.35;;;9.40;99.90;;;;;;4863205;29;20045;-89
2023/10/19 05:09:19;;;;;;;27.33;13.15;;;9.60;99.90;;;;;;4863432;29;20094;-91
2023/10/19 05:11:45;;;;;;;28.48;13.00;;;9.50;99.90;;;;;;4862981;29;20057;-90
2023/10/19 05:14:14;;;;;;;26.83;12.38;;;8.40;99.90;;;;;;4863600;29;20148;-90
2023/10/19 05:16:40;;;;;;;27.23;13.43;;;8.30;99.90;;;;;;4863902;29;20045;-90
2023/10/19 05:19:06;;;;;;;27.98;13.02;;;9.50;99.90;;;;;;4862857;29;20553;-91
2023/10/19 05:21:33;;;;;;;30.13;12.90;;;8.30;99.90;;;;;;4910123;29;20037;-90
2023/10/19 05:24:02;;;;;;;29.15;13.18;;;;;;;;;;4863710;29;20056;-91
2023/10/19 05:26:28;;;;;;;33.58;13.10;;;8.40;99.90;;;;;;4862752;29;20120;-91
2023/10/19 05:28:54;;;;;;;29.48;12.77;;;8.40;99.90;;;;;;4894535;29;20052;-90
2023/10/19 05:31:20;;;;;;;27.08;12.20;;;9.40;99.90;;;;;;4863283;29;20057;-91
2023/10/19 05:33:48;;;;;;;27.77;12.95;;;8.70;99.90;;;;;;4863025;29;20067;-91
2023/10/19 05:36:14;;;;;;;26.77;12.45;;;9.60;99.90;;;;;;4878538;29;20053;-89
2023/10/19 05:38:40;;;;;;;27.23;12.45;;;9.60;99.90;;;;;;4863307;29;20049;-84
2023/10/19 05:41:07;;;;;;;26.38;11.93;;;9.50;99.90;;;;;;4862386;29;20420;-84
2023/10/19 05:43:34;;;;;;;23.83;12.63;;;8.40;99.90;;;;;;4863360;29;20108;-86
2023/10/19 05:46:00;;;;;;;28.38;12.30;;;9.40;99.90;;;;;;4878524;29;20041;-85
2023/10/19 05:48:26;;;;;;;26.33;12.40;;;8.40;99.90;;;;;;4878908;29;20045;-84
2023/10/19 05:50:51;;;;;;;29.05;12.35;;;8.40;99.90;;;;;;4878701;29;20051;-84
2023/10/19 05:53:18;;;;;;;26.70;12.45;;;9.10;99.90;;;;;;4879271;29;20060;-84
2023/10/19 05:55:47;;;;;;;27.08;12.45;;;9.60;99.90;;;;;;4861679;29;20136;-84
2023/10/19 05:58:12;;;;;;;26.00;12.43;;;9.20;99.90;;;;;;4862825;29;20438;-84
2023/10/19 06:00:38;;;;;;;27.42;13.32;;;8.50;99.90;;;;;;4879316;29;20091;-83
2023/10/19 06:03:04;;;;;;;25.80;12.13;;;8.50;99.90;;;;;;4878827;29;20048;-84
2023/10/19 06:05:30;;;;;;;26.15;12.13;;;8.50;99.90;;;;;;4893524;29;20037;-84
2023/10/19 06:07:56;;;;;;;25.67;12.23;;;8.50;99.90;;;;;;4861475;29;20053;-83
2023/10/19 06:10:22;;;;;;;24.77;12.48;;;8.50;99.90;;;;;;4861728;29;20049;-83
2023/10/19 06:12:50;;;;;;;28.20;13.18;;;8.50;99.90;;;;;;4877969;29;20049;-83
2023/10/19 06:15:18;;;;;;;29.85;12.70;;;9.80;99.90;;;;;;4878420;29;20417;-88
2023/10/19 06:17:45;;;;;;;31.08;12.95;;;8.50;99.90;;;;;;4878750;29;20509;-85
2023/10/19 06:20:24;;;;;;;32.88;13.80;;;8.50;99.90;;;;;;4876797;29;20048;-83
2023/10/19 06:22:55;;;;;;;28.00;12.98;;;8.50;99.90;;;;;;4875245;29;20045;-84
2023/10/19 06:25:22;;;;;;;31.65;13.77;;;9.70;99.90;;;;;;4892903;29;20065;-83
2023/10/19 06:27:49;;;;;;;32.17;13.60;;;9.40;99.90;;;;;;4879165;29;20523;-83
2023/10/19 06:30:22;;;;;;;28.92;13.82;;;8.60;99.90;;;;;;4861347;29;20072;-82
2023/10/19 06:32:53;;;;;;;28.35;13.75;;;8.50;99.90;;;;;;4863534;29;20049;-83
2023/10/19 06:35:21;;;;;;;30.17;13.80;;;8.60;99.90;;;;;;4862100;29;20041;-83
2023/10/19 06:37:47;;;;;;;28.50;13.57;;;8.60;99.90;;;;;;4861580;29;20049;-82
2023/10/19 06:40:16;;;;;;;25.63;12.48;;;8.60;99.90;;;;;;4861599;29;20064;-83
2023/10/19 06:42:45;;;;;;;27.17;12.40;;;9.50;99.90;;;;;;4861625;29;20033;-83
2023/10/19 06:45:13;;;;;;;27.83;12.95;;;8.60;99.90;;;;;;4861286;29;20055;-83
2023/10/19 06:47:44;;;;;;;30.52;13.38;;;8.70;99.90;;;;;;4861791;29;20049;-83
2023/10/19 06:50:15;;;;;;;24.23;11.40;;;8.70;99.90;;;;;;4877873;29;20455;-83
2023/10/19 06:52:42;;;;;;;25.88;12.63;;;8.70;99.90;;;;;;4877573;29;20053;-83
2023/10/19 06:55:13;;;;;;;29.92;13.02;;;9.60;99.90;;;;;;4878418;29;20056;-84
2023/10/19 06:57:45;;;;;;;24.92;12.02;;;8.70;99.90;;;;;;4877016;29;20100;-83
2023/10/19 07:00:18;;;;;;;24.73;12.45;;;8.70;99.90;;;;;;4859151;29;20055;-82
2023/10/19 07:02:44;;;;;;;28.90;12.75;;;8.70;99.90;;;;;;4861488;29;20053;-83
2023/10/19 07:05:18;;;;;;;28.15;13.00;;;8.70;99.90;;;;;;4860500;29;20461;-83
2023/10/19 07:07:45;;;;;;;27.50;13.13;;;8.70;99.90;;;;;;4861434;29;20060;-82
2023/10/19 07:10:12;;;;;;;28.67;13.13;;;10.00;99.90;;;;;;4877459;29;20053;-83
2023/10/19 07:12:46;;;;;;;26.27;12.77;;;8.80;99.90;;;;;;4860484;29;20113;-82
2023/10/19 07:15:18;;;;;;;24.08;12.23;;;8.80;99.90;;;;;;4877816;29;20509;-82
2023/10/19 07:17:53;;;;;;;23.73;12.32;;;8.80;99.90;;;;;;4861741;29;20049;-82
2023/10/19 07:20:25;;;;;;;25.48;12.20;;;9.40;99.90;;;;;;4864322;29;20057;-84
2023/10/19 07:22:55;;;;;;;26.33;12.90;;;8.60;99.90;;;;;;4865122;29;20149;-84
2023/10/19 07:25:25;;;;;;;27.67;13.32;;;8.80;99.90;;;;;;4879012;29;20573;-82
2023/10/19 07:27:52;;;;;;;29.25;12.90;;;8.90;99.90;;;;;;4881428;29;20048;-85
2023/10/19 07:30:21;;;;;;;27.75;13.13;;;8.90;99.90;;;;;;4865300;29;20049;-83
2023/10/19 07:32:54;;;;;;;30.25;13.48;;;8.90;99.90;;;;;;4864668;29;20137;-83
2023/10/19 07:35:22;;;;;;;25.50;12.25;;;9.90;99.90;;;;;;4865072;29;20446;-81
2023/10/19 07:37:50;;;;;;;27.88;12.98;;;8.90;99.90;;;;;;4865034;29;20059;-82
2023/10/19 07:40:17;;;;;;;24.50;11.95;;;9.70;99.90;;;;;;4881161;29;20056;-82
2023/10/19 07:42:43;;;;;;;24.20;13.05;;;9.60;99.90;;;;;;4881569;29;20052;-82
2023/10/19 07:45:12;;;;;;;27.10;13.15;;;10.20;99.90;;;;;;4864089;29;20051;-82
2023/10/19 07:47:41;;;;;;;27.92;12.93;;;9.00;99.90;;;;;;4863997;29;20049;-82
2023/10/19 07:50:17;;;;;;;29.05;12.73;;;9.20;99.90;;;;;;4864785;29;20053;-82
2023/10/19 07:52:43;;;;;;;27.75;13.07;;;9.00;99.90;;;;;;4881611;29;20048;-82
2023/10/19 07:55:10;;;;;;;24.65;12.63;;;9.10;99.90;;;;;;4880388;29;20051;-82
2023/10/19 07:57:36;;;;;;;30.55;13.73;;;9.10;99.90;;;;;;4881460;29;20057;-82
2023/10/19 08:00:03;;;;;;;27.23;13.10;;;9.10;99.90;;;;;;4864332;29;20057;-82
2023/10/19 08:02:30;;;;;;;30.85;14.45;;;9.10;99.90;;;;;;4880496;29;20121;-81
2023/10/19 08:04:55;;;;;;;28.05;14.45;;;9.10;99.90;;;;;;4880776;29;20123;-81
2023/10/19 08:07:21;;;;;;;27.17;14.43;;;9.10;99.90;;;;;;4864341;29;20557;-82
2023/10/19 08:09:47;;;;;;;28.58;15.07;;;9.70;99.90;;;;;;4879102;29;20059;-84
2023/10/19 08:12:13;;;;;;;26.58;13.73;;;9.50;99.90;;;;;;4864158;29;20418;-82
2023/10/19 08:14:39;;;;;;;26.67;14.10;;;9.20;99.90;;;;;;4860596;29;20149;-82
2023/10/19 08:17:08;;;;;;;25.33;13.88;;;9.20;99.90;;;;;;4845879;29;20041;-82
2023/10/19 08:19:34;;;;;;;23.67;12.77;;;10.00;99.90;;;;;;4845860;29;20052;-82
2023/10/19 08:22:00;;;;;;;26.95;12.77;;;10.30;99.90;;;;;;4860666;29;20049;-82
2023/10/19 08:24:28;;;;;;;26.88;14.45;;;10.10;99.90;;;;;;4845490;29;20398;-81
2023/10/19 08:26:55;;;;;;;30.42;14.27;;;10.10;99.90;;;;;;4862439;29;20391;-81
2023/10/19 08:29:21;;;;;;;28.50;14.48;;;9.30;99.90;;;;;;4859540;29;20063;-81
2023/10/19 08:31:47;;;;;;;28.58;14.15;;;9.40;99.90;;;;;;4845521;29;20098;-81
2023/10/19 08:34:13;;;;;;;27.00;14.70;;;9.40;99.90;;;;;;4845525;29;20045;-81
2023/10/19 08:36:39;;;;;;;37.45;16.30;;;9.50;99.90;;;;;;4844948;29;20049;-81
2023/10/19 08:39:06;;;;;;;33.58;16.33;;;9.50;99.90;;;;;;4862216;29;20109;-81
2023/10/19 08:41:34;;;;;;;29.73;15.43;;;9.60;99.90;;;;;;4845541;29;20054;-81
2023/10/19 08:44:15;;;;;;;29.40;16.15;;;9.60;99.90;;;;;;4861492;29;20053;-81
2023/10/19 08:46:45;;;;;;;32.08;15.13;;;9.60;99.90;;;;;;4845768;29;20085;-81
2023/10/19 08:49:15;;;;;;;33.17;15.00;;;10.70;99.90;;;;;;4846387;29;20124;-81
2023/10/19 08:51:46;;;;;;;30.58;15.25;;;10.90;99.90;;;;;;4862723;29;20401;-81
2023/10/19 08:54:25;;;;;;;36.33;16.38;;;10.80;99.90;;;;;;4863396;29;20056;-82
2023/10/19 08:56:52;;;;;;;37.20;15.88;;;9.70;99.90;;;;;;4863255;29;20088;-82
2023/10/19 08:59:17;;;;;;;34.88;16.40;;;10.80;99.90;;;;;;4879430;29;20414;-86
2023/10/19 09:01:43;;;;;;;33.75;16.27;;;9.80;99.90;;;;;;4863589;29;20144;-85
2023/10/19 09:04:16;;;;;;;31.60;15.30;;;9.80;99.90;;;;;;4860392;29;20132;-83
2023/10/19 09:06:42;;;;;;;33.27;15.83;;;11.00;99.90;;;;;;4880449;29;20660;-84
2023/10/19 09:09:19;;;;;;;29.35;15.43;;;11.00;99.90;;;;;;4863027;29;20169;-84
2023/10/19 09:11:50;;;;;;;30.52;15.43;;;10.80;99.90;;;;;;4863042;29;20045;-85
2023/10/19 09:14:27;;;;;;;35.45;16.17;;;10.00;99.90;;;;;;4879999;29;20048;-82
2023/10/19 09:16:57;;;;;;;34.25;17.02;;;10.00;99.90;;;;;;4863735;29;20056;-82
2023/10/19 09:19:42;;;;;;;38.88;16.65;;;10.00;99.90;;;;;;4862372;29;20055;-82
2023/10/19 09:22:16;;;;;;;31.25;15.48;;;10.00;99.90;;;;;;4862740;29;20060;-82
2023/10/19 09:24:43;;;;;;;35.85;16.10;;;10.10;99.90;;;;;;4862761;29;20101;-82
2023/10/19 09:27:08;;;;;;;33.45;16.52;;;10.10;99.90;;;;;;4879086;29;20127;-84
2023/10/19 09:29:34;;;;;;;34.10;16.55;;;11.40;99.90;;;;;;4863074;29;20141;-82
2023/10/19 09:32:03;;;;;;;31.95;16.33;;;11.20;99.90;;;;;;4862627;29;20124;-83
2023/10/19 09:34:33;;;;;;;36.05;16.73;;;10.20;99.90;;;;;;4863224;29;20053;-85
2023/10/19 09:37:03;;;;;;;32.05;16.50;;;10.20;99.90;;;;;;4862506;29;20093;-86
2023/10/19 09:39:37;;;;;;;31.80;16.63;;;11.60;99.90;;;;;;4878725;29;20057;-81
2023/10/19 09:42:10;;;;;;;33.47;16.63;;;10.40;99.90;;;;;;4854397;29;20053;-82
2023/10/19 09:44:44;;;;;;;34.67;16.70;;;10.40;99.90;;;;;;4877153;29;20055;-84
2023/10/19 09:47:12;;;;;;;;;;;10.40;99.90;;;;;;4862082;29;20093;-84
2023/10/19 09:49:39;;;;;;;31.23;16.83;;;10.40;99.90;;;;;;4878821;29;19948;-83
2023/10/19 09:52:05;;;;;;;31.45;17.08;;;11.30;99.90;;;;;;4879112;29;20120;-82
2023/10/19 09:54:53;;;;;;;29.58;16.27;;;11.70;99.90;;;;;;4884652;29;20508;-82
2023/10/19 09:57:27;;;;;;;30.40;16.27;;;10.50;99.90;;;;;;4860468;29;20048;-83
2023/10/19 09:59:59;;;;;;;29.80;17.30;;;10.50;99.90;;;;;;4877671;29;20055;-83
2023/10/19 10:02:27;;;;;;;31.92;17.85;;;10.50;99.90;;;;;;4878805;29;20044;-83
2023/10/19 10:04:52;;;;;;;33.92;18.48;;;11.60;99.90;;;;;;4862964;29;20104;-83
2023/10/19 10:07:18;;;;;;;36.15;18.05;;;10.50;99.90;;;;;;4861746;29;20065;-83
2023/10/19 10:09:45;;;;;;;29.95;16.88;;;10.60;99.90;;;;;;4862463;29;20135;-83
2023/10/19 10:12:24;;;;;;;30.42;16.98;;;10.40;99.90;;;;;;4879302;29;20465;-84
2023/10/19 10:15:11;;;;;;;28.92;16.33;;;10.60;99.90;;;;;;4862172;29;20075;-85
2023/10/19 10:17:38;;;;;;;28.05;16.58;;;10.60;99.90;;;;;;4862775;29;20102;-84
2023/10/19 10:20:13;;;;;;;31.98;16.65;;;10.60;99.90;;;;;;4862421;29;20041;-84
2023/10/19 10:22:39;;;;;;;28.70;15.85;;;11.90;99.90;;;;;;4892985;29;20080;-85
2023/10/19 10:25:27;;;;;;;31.92;16.35;;;12.10;99.90;;;;;;4858677;29;20462;-84
2023/10/19 10:27:54;;;;;;;30.85;16.00;;;10.80;99.90;;;;;;4860798;29;20049;-85
2023/10/19 10:30:20;;;;;;;25.77;15.48;;;10.80;99.90;;;;;;4859643;29;20045;-83
2023/10/19 10:32:55;;;;;;;25.67;15.38;;;10.80;99.90;;;;;;4843986;29;20550;-83
2023/10/19 10:35:36;;;;;;;31.05;16.05;;;12.20;99.90;;;;;;4842873;29;20136;-83
2023/10/19 10:38:08;;;;;;;30.15;15.90;;;10.80;99.90;;;;;;4857834;29;20056;-83
2023/10/19 10:40:51;;;;;;;30.10;15.43;;;11.90;99.90;;;;;;4841990;29;20049;-84
2023/10/19 10:43:18;;;;;;;31.90;17.38;;;10.80;99.90;;;;;;4841901;29;20038;-86
2023/10/19 10:45:44;;;;;;;26.65;15.60;;;11.90;99.90;;;;;;4843117;29;20052;-86
2023/10/19 10:48:15;;;;;;;30.15;16.13;;;11.50;99.90;;;;;;4842001;29;20107;-85
2023/10/19 10:50:46;;;;;;;28.23;16.52;;;10.40;99.90;;;;;;4857590;29;20049;-85
2023/10/19 10:53:27;;;;;;;29.20;16.17;;;11.90;99.90;;;;;;4843608;29;20509;-85
2023/10/19 10:56:00;;;;;;;26.95;15.95;;;11.50;99.90;;;;;;4847278;29;20497;-85
2023/10/19 10:58:46;;;;;;;28.33;16.05;;;11.00;99.90;;;;;;4846558;29;20042;-85
2023/10/19 11:01:13;;;;;;;28.15;15.80;;;12.20;99.90;;;;;;4846622;29;20466;-85
2023/10/19 11:03:46;;;;;;;25.83;16.17;;;12.10;99.90;;;;;;4846647;29;20033;-84
2023/10/19 11:06:15;;;;;;;26.58;15.70;;;11.90;99.90;;;;;;4847052;29;20065;-85
2023/10/19 11:08:46;;;;;;;26.95;16.83;;;11.90;99.90;;;;;;4847037;29;20375;-85
2023/10/19 11:11:15;;;;;;;29.00;17.15;;;12.00;99.90;;;;;;4846056;29;20053;-85
2023/10/19 11:13:44;;;;;;;24.98;15.48;;;11.00;99.90;;;;;;4847286;29;20136;-85
2023/10/19 11:16:23;;;;;;;28.08;15.95;;;12.00;99.90;;;;;;4846796;29;20042;-83
2023/10/19 11:18:51;;;;;;;28.08;17.20;;;12.50;99.90;;;;;;4842827;29;20075;-83
2023/10/19 11:21:23;;;;;;;29.77;16.80;;;12.00;99.90;;;;;;4828009;29;20057;-83
2023/10/19 11:23:56;;;;;;;29.73;16.58;;;12.00;99.90;;;;;;4834523;29;20057;-83
2023/10/19 11:26:47;;;;;;;29.75;16.77;;;11.00;99.90;;;;;;4871736;29;20160;-83
2023/10/19 11:29:16;;;;;;;28.73;16.38;;;11.00;99.90;;;;;;4881095;29;20097;-83
2023/10/19 11:31:56;;;;;;;30.23;17.08;;;11.00;99.90;;;;;;4863932;29;20045;-84
2023/10/19 11:34:22;;;;;;;27.52;16.17;;;11.00;99.90;;;;;;4847556;29;20058;-84
2023/10/19 11:36:53;;;;;;;28.90;17.20;;;11.00;99.90;;;;;;4863123;29;20474;-84
2023/10/19 11:39:19;;;;;;;28.25;16.95;;;11.00;99.90;;;;;;4861389;29;20052;-82
2023/10/19 11:41:44;;;;;;;26.20;16.55;;;12.20;99.90;;;;;;4877493;29;20057;-82
2023/10/19 11:44:10;;;;;;;27.98;16.30;;;12.20;99.90;;;;;;4862705;29;20046;-82
2023/10/19 11:46:35;;;;;;;26.55;16.35;;;12.20;99.90;;;;;;4862529;29;20049;-82
2023/10/19 11:49:04;;;;;;;28.58;16.65;;;11.40;99.90;;;;;;4877819;29;20133;-82
2023/10/19 11:51:43;;;;;;;28.58;17.70;;;11.40;99.90;;;;;;4862878;29;20178;-82
2023/10/19 11:54:12;;;;;;;28.92;17.92;;;11.40;99.90;;;;;;4845232;29;20053;-82
2023/10/19 11:56:41;;;;;;;30.33;17.52;;;11.50;99.90;;;;;;4860085;29;20491;-83
2023/10/19 11:59:12;;;;;;;27.40;16.48;;;11.60;99.90;;;;;;4827851;29;20384;-82
2023/10/19 12:01:50;;;;;;;26.73;16.05;;;13.10;99.90;;;;;;4827367;29;20054;-82
2023/10/19 12:04:15;;;;;;;27.33;16.63;;;12.70;99.90;;;;;;4844140;29;20050;-82
2023/10/19 12:06:50;;;;;;;23.80;15.40;;;13.20;99.90;;;;;;4827261;29;20502;-82
2023/10/19 12:09:16;;;;;;;26.38;15.65;;;12.90;99.90;;;;;;4827520;29;20049;-82
2023/10/19 12:11:42;;;;;;;25.27;15.98;;;13.10;99.90;;;;;;4827720;29;20407;-82
2023/10/19 12:14:14;;;;;;;25.80;15.25;;;11.90;99.90;;;;;;4842173;29;20050;-82
2023/10/19 12:16:41;;;;;;;24.58;15.68;;;11.90;99.90;;;;;;4828264;29;20069;-83
2023/10/19 12:19:07;;;;;;;23.17;14.93;;;11.90;99.90;;;;;;4842764;29;20056;-83
2023/10/19 12:21:37;;;;;;;25.15;15.60;;;12.90;99.90;;;;;;4841904;29;20050;-82
2023/10/19 12:24:04;;;;;;;26.48;16.02;;;12.60;99.90;;;;;;4827840;29;20042;-82
2023/10/19 12:26:32;;;;;;;25.50;16.45;;;11.90;99.90;;;;;;4845736;29;20065;-82
2023/10/19 12:28:58;;;;;;;27.60;16.35;;;11.80;99.90;;;;;;4875981;29;20064;-83
2023/10/19 12:31:24;;;;;;;29.77;17.35;;;12.50;99.90;;;;;;4862041;29;20045;-82
2023/10/19 12:33:49;;;;;;;27.95;16.30;;;11.90;99.90;;;;;;4916743;24;20060;-82
2023/10/19 12:38:54;;;;;;;27.00;16.90;;;13.20;99.90;;;;;;4898111;29;20052;-82
2023/10/19 12:41:20;;;;;;;26.42;16.30;;;13.00;99.90;;;;;;4882596;29;20048;-82
2023/10/19 12:43:52;;;;;;;31.75;16.70;;;13.30;99.90;;;;;;4913388;29;20140;-82
2023/10/19 12:46:19;;;;;;;27.20;17.33;;;12.70;99.90;;;;;;4882363;29;20056;-83
2023/10/19 12:48:47;;;;;;;27.63;17.35;;;12.40;99.90;;;;;;4882176;29;20056;-82
2023/10/19 12:51:14;;;;;;;25.30;15.93;;;12.50;99.90;;;;;;4882551;29;20475;-82
2023/10/19 12:53:39;;;;;;;28.02;16.90;;;12.50;99.90;;;;;;4913144;29;20052;-82
2023/10/19 12:56:08;;;;;;;24.38;15.82;;;12.70;99.90;;;;;;4881991;29;20051;-82
2023/10/19 12:58:41;;;;;;;26.35;16.40;;;12.70;99.90;;;;;;4896468;29;20129;-82
2023/10/19 13:01:17;;;;;;;25.10;15.30;;;14.10;99.90;;;;;;4882408;29;20056;-82
2023/10/19 13:03:54;;;;;;;26.27;16.13;;;13.80;99.90;;;;;;4881843;29;20060;-82
2023/10/19 13:06:20;;;;;;;22.65;14.50;;;13.90;99.90;;;;;;4882233;29;20472;-82
2023/10/19 13:08:55;;;;;;;24.98;14.95;;;13.80;99.90;;;;;;4913450;29;20087;-82
2023/10/19 13:11:35;;;;;;;24.13;14.73;;;12.40;99.90;;;;;;4881239;29;20377;-83